Terminal Aerodrome Forecast
Issued by NWS Twin Cities, MN

Home | Current Version | Previous Version | Text Only | Print | Product List | Glossary On
Versions: 1 2 3 4 5 6 7 8 9 10 11 12
000
FTUS43 KMPX 161127
TAFSTC
TAF
KSTC 161127Z 1612/1712 13009KT P6SM OVC080
     FM161500 23006KT P6SM OVC050
     FM162000 29011KT P6SM BKN050
     FM170100 31004KT P6SM SCT050=

USA.gov is the U.S. government's official web portal to all federal, state and local government web resources and services.